CheckWX is a tool to help pilots better visualize weather data.  It is not intended as a substitute for an official pre-flight weather briefing.

06:58:15 UTC

SARC METAR
Corrientes Airport
Corrientes, Argentina
Current

58 mins ago

SARC 260600Z 18002KT CAVOK 07/03 Q1019
Observed
Jun-26 @ 06:00 UTC
Wind
  • 180° at 2 KTS
Visibility
10,000+ meters
Flight Rules
VFR
Cloud Levels
  • Clear skies
Temperature
C / 45°F
Dewpoint
C / 37°F
Humidity
76%
Altimeter
30.09" Hg
Pressure
1018.92 hPa
Previous

2 hours ago

SARC 260500Z 16003KT CAVOK 08/03 Q1019
Observed
Jun-26 @ 05:00 UTC
Wind
  • 160° at 3 KTS
Visibility
10,000+ meters
Flight Rules
VFR
Cloud Levels
  • Clear skies
Temperature
C / 46°F
Dewpoint
C / 37°F
Humidity
71%
Altimeter
30.09" Hg
Pressure
1018.92 hPa
Previous

3 hours ago

SARC 260400Z 18004KT CAVOK 08/02 Q1019
Observed
Jun-26 @ 04:00 UTC
Wind
  • 180° at 4 KTS
Visibility
10,000+ meters
Flight Rules
VFR
Cloud Levels
  • Clear skies
Temperature
C / 46°F
Dewpoint
C / 36°F
Humidity
66%
Altimeter
30.09" Hg
Pressure
1018.92 hPa